Time;durP1;ratioP1;P1;durP2;ratioP2;P2;SDS_P1;SDS_P2;PMS_P1;PMS_P2;Temp;Humidity;BMP_temperature;BMP_pressure;BME280_temperature;BME280_humidity;BME280_pressure;Samples;Min_cycle;Max_cycle;Signal;HPM_P1;HPM_P2
2021/12/27 00:00:30;;;;;;;1.90;1.50;;;3.80;99.90;;;;;;2081180;28;20681;-68
2021/12/27 00:01:34;;;;;;;1.70;1.10;;;3.80;99.90;;;;;;2083634;28;20180;-70
2021/12/27 00:02:35;;;;;;;1.67;1.35;;;3.80;99.90;;;;;;2080497;28;20671;-67
2021/12/27 00:03:37;;;;;;;3.10;1.60;;;3.80;99.90;;;;;;2080601;28;20229;-69
2021/12/27 00:04:37;;;;;;;1.77;1.02;;;3.80;99.90;;;;;;2082270;28;20179;-68
2021/12/27 00:05:38;;;;;;;4.17;1.60;;;3.70;99.90;;;;;;2081736;28;20187;-68
2021/12/27 00:06:39;;;;;;;1.30;1.00;;;3.70;99.90;;;;;;2080592;28;20183;-68
2021/12/27 00:07:41;;;;;;;1.23;0.90;;;3.70;99.90;;;;;;2080602;28;20200;-69
2021/12/27 00:08:43;;;;;;;2.13;0.90;;;3.60;99.90;;;;;;2083551;28;20195;-67
2021/12/27 00:09:43;;;;;;;2.85;0.88;;;3.60;99.90;;;;;;2081824;28;20204;-69
2021/12/27 00:10:44;;;;;;;1.23;1.03;;;3.60;99.90;;;;;;2080463;28;20707;-68
2021/12/27 00:11:45;;;;;;;1.67;0.90;;;3.60;99.90;;;;;;2080629;28;20188;-67
2021/12/27 00:12:46;;;;;;;2.07;1.30;;;3.60;99.90;;;;;;2083869;28;20191;-67
2021/12/27 00:13:48;;;;;;;1.13;1.00;;;3.60;99.90;;;;;;2081321;28;20192;-67
2021/12/27 00:14:48;;;;;;;1.60;1.02;;;3.60;99.90;;;;;;2081004;28;20210;-68
2021/12/27 00:15:49;;;;;;;1.80;1.20;;;3.60;99.90;;;;;;2080267;28;20199;-69
2021/12/27 00:16:50;;;;;;;1.37;0.87;;;3.70;99.90;;;;;;2083618;28;20179;-69
2021/12/27 00:17:51;;;;;;;1.20;1.00;;;3.70;99.90;;;;;;2081111;28;20235;-69
2021/12/27 00:18:51;;;;;;;2.35;1.17;;;3.70;99.90;;;;;;2080549;28;20217;-68
2021/12/27 00:19:52;;;;;;;1.20;1.03;;;3.70;99.90;;;;;;2080623;28;20565;-68
2021/12/27 00:20:54;;;;;;;1.50;1.10;;;3.80;99.90;;;;;;2081571;28;20177;-68
2021/12/27 00:21:54;;;;;;;1.73;1.10;;;3.80;99.90;;;;;;2081408;28;20667;-68
2021/12/27 00:22:55;;;;;;;1.30;1.20;;;3.70;99.90;;;;;;2081673;28;20264;-68
2021/12/27 00:23:56;;;;;;;1.17;1.00;;;3.80;99.90;;;;;;2081527;28;20177;-67
2021/12/27 00:24:56;;;;;;;1.10;0.97;;;3.80;99.90;;;;;;2081520;28;20183;-68
2021/12/27 00:25:57;;;;;;;0.90;0.90;;;3.80;99.90;;;;;;2080926;28;20616;-68
2021/12/27 00:26:58;;;;;;;1.90;1.23;;;3.80;99.90;;;;;;2080808;28;20180;-67
2021/12/27 00:27:58;;;;;;;3.80;1.67;;;3.70;99.90;;;;;;2081550;28;20278;-68
2021/12/27 00:28:59;;;;;;;1.90;1.30;;;3.70;99.90;;;;;;2081600;28;20212;-68
2021/12/27 00:30:00;;;;;;;2.70;1.77;;;3.60;99.90;;;;;;2080845;28;20674;-68
2021/12/27 00:31:02;;;;;;;2.13;1.70;;;3.60;99.90;;;;;;2080799;28;20626;-68
2021/12/27 00:32:03;;;;;;;3.97;2.30;;;3.50;99.90;;;;;;2078647;28;20180;-68
2021/12/27 00:33:05;;;;;;;2.03;1.43;;;3.50;99.90;;;;;;2072899;28;20188;-68
2021/12/27 00:34:06;;;;;;;2.65;1.50;;;3.50;99.90;;;;;;2072764;28;20467;-68
2021/12/27 00:35:08;;;;;;;2.03;1.47;;;3.40;99.90;;;;;;2072517;28;20185;-68
2021/12/27 00:36:08;;;;;;;6.15;2.67;;;3.40;99.90;;;;;;2072750;28;20192;-68
2021/12/27 00:37:09;;;;;;;4.00;2.30;;;3.40;99.90;;;;;;2072496;28;20208;-68
2021/12/27 00:38:10;;;;;;;4.87;2.27;;;3.40;99.90;;;;;;2073272;28;20252;-68
2021/12/27 00:39:11;;;;;;;4.07;2.10;;;3.40;99.90;;;;;;2072749;28;20216;-67
2021/12/27 00:40:13;;;;;;;6.10;2.17;;;3.30;99.90;;;;;;2072662;28;20205;-68
2021/12/27 00:41:14;;;;;;;5.53;2.42;;;3.30;99.90;;;;;;2072618;28;20191;-68
2021/12/27 00:42:15;;;;;;;7.13;2.60;;;3.30;99.90;;;;;;2073362;28;20183;-67
2021/12/27 00:43:16;;;;;;;4.10;2.27;;;3.20;99.90;;;;;;2073201;28;20181;-67
2021/12/27 00:44:17;;;;;;;4.78;2.17;;;3.20;99.90;;;;;;2073309;28;20606;-68
2021/12/27 00:45:20;;;;;;;5.90;3.03;;;3.10;99.90;;;;;;2073057;28;20188;-68
2021/12/27 00:46:20;;;;;;;6.03;2.72;;;3.10;99.90;;;;;;2073366;28;20235;-68
2021/12/27 00:47:21;;;;;;;6.23;2.33;;;3.00;99.90;;;;;;2073022;28;20240;-68
2021/12/27 00:48:22;;;;;;;3.90;2.37;;;3.00;99.90;;;;;;2073245;28;20180;-68
2021/12/27 00:49:23;;;;;;;4.33;2.40;;;3.00;99.90;;;;;;2073316;28;20179;-68
2021/12/27 00:50:23;;;;;;;2.97;2.20;;;3.00;99.90;;;;;;2073240;28;20290;-67
2021/12/27 00:51:25;;;;;;;3.87;2.23;;;3.00;99.90;;;;;;2073176;28;20228;-68
2021/12/27 00:52:26;;;;;;;3.67;2.15;;;3.00;99.90;;;;;;2073209;28;20192;-68
2021/12/27 00:53:27;;;;;;;4.07;2.00;;;3.00;99.90;;;;;;2073199;28;20607;-68
2021/12/27 00:54:27;;;;;;;7.30;3.37;;;3.00;99.90;;;;;;2073180;28;20184;-68
2021/12/27 00:55:28;;;;;;;7.00;3.00;;;3.00;99.90;;;;;;2073250;28;20262;-68
2021/12/27 00:56:29;;;;;;;6.97;3.17;;;3.00;99.90;;;;;;2073189;28;20264;-68
2021/12/27 00:57:30;;;;;;;4.90;2.47;;;3.00;99.90;;;;;;2072506;28;20216;-68
2021/12/27 00:58:30;;;;;;;10.60;3.40;;;3.00;99.90;;;;;;2072701;28;20665;-68
2021/12/27 00:59:31;;;;;;;10.73;4.00;;;3.00;99.90;;;;;;2073067;28;20546;-67
2021/12/27 01:00:32;;;;;;;5.83;2.83;;;3.00;99.90;;;;;;2072535;28;20339;-67
2021/12/27 01:01:33;;;;;;;4.43;2.45;;;3.00;99.90;;;;;;2072620;28;20275;-68
2021/12/27 01:02:34;;;;;;;9.50;3.67;;;3.00;99.90;;;;;;2072591;28;20184;-68
2021/12/27 01:03:34;;;;;;;3.57;2.20;;;3.10;99.90;;;;;;2064509;28;20645;-68
2021/12/27 01:04:35;;;;;;;4.07;2.57;;;3.10;99.90;;;;;;2072456;28;20179;-68
2021/12/27 01:05:36;;;;;;;3.03;2.23;;;3.10;99.90;;;;;;2073163;28;20520;-67
2021/12/27 01:06:36;;;;;;;5.43;2.70;;;3.10;99.90;;;;;;2073272;28;20177;-68
2021/12/27 01:07:37;;;;;;;4.63;2.83;;;3.10;99.90;;;;;;2073159;28;20206;-67
2021/12/27 01:08:38;;;;;;;6.28;2.50;;;3.10;99.90;;;;;;2072667;28;20177;-68
2021/12/27 01:12:23;;;;;;;4.22;2.53;;;3.00;99.90;;;;;;2072720;28;20199;-68
2021/12/27 01:13:25;;;;;;;3.70;2.20;;;3.00;99.90;;;;;;2072593;28;20594;-67
2021/12/27 01:14:39;;;;;;;4.15;2.90;;;2.90;99.90;;;;;;2073171;28;20200;-68
2021/12/27 01:16:43;;;;;;;5.20;3.00;;;2.80;99.90;;;;;;2073097;28;20682;-68
2021/12/27 01:17:48;;;;;;;3.70;2.30;;;2.80;99.90;;;;;;2073006;28;20257;-68
2021/12/27 01:18:50;;;;;;;3.92;2.28;;;2.80;99.90;;;;;;2072434;28;20180;-68
2021/12/27 01:19:50;;;;;;;4.35;3.03;;;2.80;99.90;;;;;;2072373;28;20726;-68
2021/12/27 01:20:51;;;;;;;4.47;2.30;;;2.80;99.90;;;;;;2072451;28;20242;-68
2021/12/27 01:21:52;;;;;;;3.63;2.80;;;2.80;99.90;;;;;;2073126;28;20647;-68
2021/12/27 01:22:54;;;;;;;2.70;1.97;;;2.80;99.90;;;;;;2073179;28;20558;-68
2021/12/27 01:23:56;;;;;;;2.15;1.60;;;2.80;99.90;;;;;;2072679;28;20191;-68
2021/12/27 01:24:58;;;;;;;4.00;2.00;;;2.70;99.90;;;;;;2064305;28;20185;-68
2021/12/27 01:25:59;;;;;;;3.83;2.30;;;2.70;99.90;;;;;;2072563;28;20191;-68
2021/12/27 01:27:02;;;;;;;3.53;1.87;;;2.70;99.90;;;;;;2073016;28;20530;-68
2021/12/27 01:28:05;;;;;;;3.17;2.03;;;2.60;99.90;;;;;;2073131;28;20230;-68
2021/12/27 01:29:07;;;;;;;2.40;1.55;;;2.60;99.90;;;;;;2072500;28;20187;-67
2021/12/27 01:30:15;;;;;;;2.20;1.55;;;2.50;99.90;;;;;;2072497;28;20203;-68
2021/12/27 01:31:15;;;;;;;2.13;1.70;;;2.50;99.90;;;;;;2065524;28;20211;-68
2021/12/27 01:32:16;;;;;;;3.00;1.90;;;2.50;99.90;;;;;;2072542;28;20575;-68
2021/12/27 01:33:20;;;;;;;3.00;1.70;;;2.50;99.90;;;;;;2072544;28;20217;-68
2021/12/27 01:34:23;;;;;;;1.90;1.50;;;2.40;99.90;;;;;;2072557;28;20180;-68
2021/12/27 01:35:24;;;;;;;4.03;2.40;;;2.40;99.90;;;;;;2072281;28;20590;-68
2021/12/27 01:36:31;;;;;;;3.25;1.70;;;2.30;99.90;;;;;;2072510;28;20254;-68
2021/12/27 01:37:32;;;;;;;1.83;1.63;;;2.30;99.90;;;;;;2072315;28;20218;-68
2021/12/27 01:38:37;;;;;;;1.97;1.43;;;2.30;99.90;;;;;;2072553;28;20177;-68
2021/12/27 01:39:37;;;;;;;2.65;1.83;;;2.30;99.90;;;;;;2064880;28;20231;-68
2021/12/27 01:40:41;;;;;;;3.17;1.73;;;2.20;99.90;;;;;;2072625;28;20679;-68
2021/12/27 01:41:42;;;;;;;5.68;1.80;;;2.20;99.90;;;;;;2072973;28;20597;-68
2021/12/27 01:43:06;;;;;;;2.07;1.37;;;2.20;99.90;;;;;;2072524;28;20210;-68
2021/12/27 01:44:07;;;;;;;2.33;1.77;;;2.20;99.90;;;;;;2072628;28;20553;-68
2021/12/27 01:45:09;;;;;;;2.80;1.70;;;2.10;99.90;;;;;;2072883;28;20183;-68
2021/12/27 01:46:20;;;;;;;4.05;2.10;;;2.10;99.90;;;;;;2073114;28;20194;-68
2021/12/27 01:47:21;;;;;;;2.47;1.80;;;2.10;99.90;;;;;;2072812;28;20175;-68
2021/12/27 01:48:28;;;;;;;2.60;1.13;;;2.10;99.90;;;;;;2072468;28;20697;-68
2021/12/27 01:49:28;;;;;;;2.35;1.58;;;2.10;99.90;;;;;;2072572;28;20166;-68
2021/12/27 01:50:29;;;;;;;3.07;1.90;;;2.10;99.90;;;;;;2072956;28;20226;-68
2021/12/27 01:51:30;;;;;;;3.70;2.00;;;2.10;99.90;;;;;;2072388;28;20171;-68
2021/12/27 01:52:31;;;;;;;3.03;1.87;;;2.00;99.90;;;;;;2072346;28;20250;-68
2021/12/27 01:53:34;;;;;;;2.17;1.47;;;2.10;99.90;;;;;;2072905;28;20546;-68
2021/12/27 01:54:34;;;;;;;3.30;1.77;;;2.10;99.90;;;;;;2072888;28;20705;-68
2021/12/27 01:55:36;;;;;;;3.37;1.50;;;2.10;99.90;;;;;;2072343;28;20216;-68
2021/12/27 01:56:37;;;;;;;5.13;2.45;;;2.10;99.90;;;;;;2072326;28;20168;-68
2021/12/27 01:57:38;;;;;;;3.83;2.00;;;2.10;99.90;;;;;;2072404;28;20209;-68
2021/12/27 01:58:40;;;;;;;3.87;1.63;;;2.20;99.90;;;;;;2072359;28;20185;-68
2021/12/27 01:59:40;;;;;;;2.75;1.50;;;2.20;99.90;;;;;;2072906;28;20187;-68
2021/12/27 02:00:52;;;;;;;4.33;1.80;;;2.30;99.90;;;;;;2073919;28;20211;-68
2021/12/27 02:01:54;;;;;;;1.85;1.50;;;2.30;99.90;;;;;;2074594;28;20163;-68
2021/12/27 02:02:54;;;;;;;2.17;1.67;;;2.40;99.90;;;;;;2073889;28;20677;-68
2021/12/27 02:03:56;;;;;;;2.23;1.77;;;2.40;99.90;;;;;;2073895;28;20173;-68
2021/12/27 02:04:56;;;;;;;2.65;2.05;;;2.40;99.90;;;;;;2074227;28;20181;-68
2021/12/27 02:05:57;;;;;;;2.80;1.70;;;2.40;99.90;;;;;;2074358;28;20667;-67
2021/12/27 02:06:58;;;;;;;2.65;1.77;;;2.40;99.90;;;;;;2073787;28;20231;-68
2021/12/27 02:07:59;;;;;;;8.03;2.47;;;2.50;99.90;;;;;;2073823;28;20305;-68
2021/12/27 02:08:59;;;;;;;3.97;2.50;;;2.50;99.90;;;;;;2073825;28;20186;-68
2021/12/27 02:10:04;;;;;;;8.63;3.70;;;2.50;99.90;;;;;;2073928;28;20257;-68
2021/12/27 02:11:06;;;;;;;8.52;4.43;;;2.60;99.90;;;;;;2073668;28;20179;-67
2021/12/27 02:12:07;;;;;;;9.95;5.10;;;2.60;99.90;;;;;;2073800;28;20247;-68
2021/12/27 02:13:09;;;;;;;8.05;4.50;;;2.60;99.90;;;;;;2073721;28;20187;-68
2021/12/27 02:14:09;;;;;;;11.15;5.45;;;2.60;99.90;;;;;;2080413;28;20198;-67
2021/12/27 02:15:12;;;;;;;10.10;5.33;;;2.60;99.90;;;;;;2082548;28;20214;-68
2021/12/27 02:16:18;;;;;;;12.07;5.97;;;2.60;99.90;;;;;;2082628;28;20186;-68
2021/12/27 02:17:20;;;;;;;8.68;4.65;;;2.60;99.90;;;;;;2082378;28;20214;-68
2021/12/27 02:18:21;;;;;;;8.90;5.30;;;2.70;99.90;;;;;;2082029;28;20181;-68
2021/12/27 02:19:22;;;;;;;8.40;4.43;;;2.70;99.90;;;;;;2081738;28;20169;-68
2021/12/27 02:20:28;;;;;;;9.02;4.25;;;2.70;99.90;;;;;;2082482;28;20196;-68
2021/12/27 02:21:29;;;;;;;7.45;4.13;;;2.80;99.90;;;;;;2082508;28;20176;-68
2021/12/27 02:22:34;;;;;;;5.40;3.40;;;2.80;99.90;;;;;;2082590;28;20172;-67
2021/12/27 02:23:37;;;;;;;4.97;3.25;;;2.80;99.90;;;;;;2082500;28;20214;-68
2021/12/27 02:24:40;;;;;;;5.95;3.13;;;2.70;99.90;;;;;;2082277;28;20668;-68
2021/12/27 02:25:48;;;;;;;8.35;3.78;;;2.80;99.90;;;;;;2078823;28;20184;-68
2021/12/27 02:26:51;;;;;;;11.45;4.90;;;2.80;99.90;;;;;;2073700;28;20176;-68
2021/12/27 02:27:52;;;;;;;8.60;4.55;;;2.70;99.90;;;;;;2074305;28;20184;-68
2021/12/27 02:28:52;;;;;;;7.63;3.65;;;2.70;99.90;;;;;;2074219;28;20180;-68
2021/12/27 02:29:53;;;;;;;6.83;3.50;;;2.70;99.90;;;;;;2074106;28;20267;-67
2021/12/27 02:30:54;;;;;;;5.90;3.30;;;2.70;99.90;;;;;;2074235;28;20536;-68
2021/12/27 02:31:55;;;;;;;6.63;3.15;;;2.70;99.90;;;;;;2074228;28;20176;-68
2021/12/27 02:33:03;;;;;;;5.13;3.00;;;2.70;99.90;;;;;;2074264;28;20680;-67
2021/12/27 02:34:05;;;;;;;4.22;2.83;;;2.60;99.90;;;;;;2073760;28;20244;-68
2021/12/27 02:35:06;;;;;;;3.65;2.10;;;2.60;99.90;;;;;;2073582;28;20184;-68
2021/12/27 02:36:08;;;;;;;6.30;3.67;;;2.60;99.90;;;;;;2074133;28;20176;-68
2021/12/27 02:37:09;;;;;;;5.57;3.30;;;2.70;99.90;;;;;;2073527;28;20475;-68
2021/12/27 02:38:20;;;;;;;6.90;3.60;;;2.70;99.90;;;;;;2073573;28;20188;-68
2021/12/27 02:39:21;;;;;;;8.20;3.80;;;2.70;99.90;;;;;;2073675;28;20165;-68
2021/12/27 02:40:26;;;;;;;6.00;3.63;;;2.70;99.90;;;;;;2073528;28;20224;-68
2021/12/27 02:41:27;;;;;;;5.03;3.00;;;2.70;99.90;;;;;;2073524;28;20226;-68
2021/12/27 02:42:27;;;;;;;5.47;3.10;;;2.70;99.90;;;;;;2073679;28;20180;-68
2021/12/27 02:43:31;;;;;;;6.10;3.37;;;2.80;99.90;;;;;;2074110;28;20180;-68
2021/12/27 02:44:34;;;;;;;5.07;3.25;;;2.80;99.90;;;;;;2073432;28;20223;-68
2021/12/27 02:45:45;;;;;;;3.92;2.92;;;2.80;99.90;;;;;;2065837;28;20185;-67
2021/12/27 02:46:46;;;;;;;5.03;3.17;;;2.80;99.90;;;;;;2066882;28;20661;-68
2021/12/27 02:47:47;;;;;;;4.13;2.40;;;2.80;99.90;;;;;;2073422;28;20200;-68
2021/12/27 02:48:48;;;;;;;6.57;3.60;;;2.80;99.90;;;;;;2073648;28;20229;-68
2021/12/27 02:49:49;;;;;;;4.73;3.10;;;2.90;99.90;;;;;;2073470;28;20191;-68
2021/12/27 02:50:52;;;;;;;3.87;2.60;;;2.80;99.90;;;;;;2073542;28;20683;-68
2021/12/27 02:51:53;;;;;;;4.68;2.45;;;2.80;99.90;;;;;;2073965;28;20189;-68
2021/12/27 02:52:54;;;;;;;4.70;2.67;;;2.80;99.90;;;;;;2074064;28;20279;-68
2021/12/27 02:53:54;;;;;;;3.33;2.53;;;2.80;99.90;;;;;;2073415;28;20191;-67
2021/12/27 02:54:55;;;;;;;4.77;3.13;;;2.80;99.90;;;;;;2073290;28;20778;-68
2021/12/27 02:55:57;;;;;;;3.83;2.47;;;2.80;99.90;;;;;;2074170;28;20569;-68
2021/12/27 02:56:58;;;;;;;5.72;3.30;;;2.80;99.90;;;;;;2073816;28;20188;-68
2021/12/27 02:57:59;;;;;;;6.07;3.83;;;2.80;99.90;;;;;;2073972;28;20199;-67
2021/12/27 02:59:00;;;;;;;6.35;4.00;;;2.80;99.90;;;;;;2074014;28;20177;-68
2021/12/27 03:00:00;;;;;;;5.07;3.30;;;2.80;99.90;;;;;;2074070;28;20667;-68
2021/12/27 03:01:10;;;;;;;4.73;3.20;;;2.90;99.90;;;;;;2073431;28;20179;-68
2021/12/27 03:02:10;;;;;;;7.18;3.70;;;2.90;99.90;;;;;;2073451;28;20739;-68
2021/12/27 03:03:11;;;;;;;6.13;3.40;;;2.90;99.90;;;;;;2073973;28;20189;-68
2021/12/27 03:04:12;;;;;;;10.43;3.40;;;2.90;99.90;;;;;;2074077;28;20191;-68
2021/12/27 03:05:16;;;;;;;6.60;3.57;;;2.90;99.90;;;;;;2073260;28;20520;-68
2021/12/27 03:06:18;;;;;;;6.40;2.75;;;2.90;99.90;;;;;;2065716;28;20200;-68
2021/12/27 03:07:18;;;;;;;4.40;2.55;;;2.90;99.90;;;;;;2065489;28;20197;-68
2021/12/27 03:08:21;;;;;;;3.30;2.20;;;2.90;99.90;;;;;;2073460;28;20185;-68
2021/12/27 03:09:22;;;;;;;4.72;2.78;;;3.00;99.90;;;;;;2073934;28;20176;-68
2021/12/27 03:10:28;;;;;;;4.47;2.77;;;3.00;99.90;;;;;;2073844;28;20210;-68
2021/12/27 03:11:29;;;;;;;3.00;1.83;;;3.00;99.90;;;;;;2072406;28;20172;-68
2021/12/27 03:12:29;;;;;;;3.40;2.27;;;3.00;99.90;;;;;;2065289;28;20584;-68
2021/12/27 03:13:36;;;;;;;5.03;2.33;;;3.00;99.90;;;;;;2073219;28;20238;-68
2021/12/27 03:14:37;;;;;;;3.40;2.20;;;3.00;99.90;;;;;;2073325;28;20577;-68
2021/12/27 03:15:38;;;;;;;3.20;2.10;;;3.10;99.90;;;;;;2073294;28;20192;-68
2021/12/27 03:16:38;;;;;;;2.60;1.90;;;3.10;99.90;;;;;;2073422;28;20432;-68
2021/12/27 03:17:43;;;;;;;4.67;2.73;;;3.10;99.90;;;;;;2073831;28;20230;-68
2021/12/27 03:18:48;;;;;;;5.88;3.13;;;3.10;99.90;;;;;;2073953;28;20648;-68
2021/12/27 03:19:49;;;;;;;5.63;3.20;;;3.10;99.90;;;;;;2073766;28;20667;-68
2021/12/27 03:20:53;;;;;;;3.33;2.20;;;3.10;99.90;;;;;;2073953;28;20188;-68
2021/12/27 03:21:54;;;;;;;3.35;2.17;;;3.10;99.90;;;;;;2073446;28;20235;-67
2021/12/27 03:22:54;;;;;;;2.70;1.87;;;3.10;99.90;;;;;;2073765;28;20216;-68
2021/12/27 03:23:55;;;;;;;2.80;1.93;;;3.10;99.90;;;;;;2073700;28;20235;-68
2021/12/27 03:24:56;;;;;;;4.57;2.63;;;3.10;99.90;;;;;;2073651;28;20181;-68
2021/12/27 03:25:57;;;;;;;4.23;2.30;;;3.10;99.90;;;;;;2073939;28;20264;-68
2021/12/27 03:26:58;;;;;;;2.43;1.93;;;3.20;99.90;;;;;;2073725;28;20227;-68
2021/12/27 03:27:58;;;;;;;4.90;3.00;;;3.10;99.90;;;;;;2073782;28;20181;-68
2021/12/27 03:28:59;;;;;;;4.13;2.33;;;3.10;99.90;;;;;;2073825;28;20208;-68
2021/12/27 03:30:00;;;;;;;4.30;2.80;;;3.20;99.90;;;;;;2073826;28;20192;-68
2021/12/27 03:31:01;;;;;;;3.83;2.67;;;3.10;99.90;;;;;;2073858;28;20187;-68
2021/12/27 03:32:02;;;;;;;4.13;2.53;;;3.10;99.90;;;;;;2073712;28;20180;-67
2021/12/27 03:33:05;;;;;;;4.13;2.70;;;3.10;99.90;;;;;;2073858;28;20608;-68
2021/12/27 03:34:06;;;;;;;3.63;2.47;;;3.10;99.90;;;;;;2073635;28;20184;-68
2021/12/27 03:35:13;;;;;;;4.23;2.57;;;3.10;99.90;;;;;;2072998;28;20607;-68
2021/12/27 03:36:14;;;;;;;5.32;2.38;;;3.10;99.90;;;;;;2073147;28;20233;-67
2021/12/27 03:37:15;;;;;;;1.30;1.20;;;3.10;99.90;;;;;;2072965;28;20216;-68
2021/12/27 03:38:15;;;;;;;1.80;1.40;;;3.20;99.90;;;;;;2073092;28;20543;-68
2021/12/27 03:39:16;;;;;;;1.30;1.20;;;3.20;99.90;;;;;;2073736;28;20185;-68
2021/12/27 03:40:19;;;;;;;2.40;1.60;;;3.20;99.90;;;;;;2073497;28;20216;-68
2021/12/27 03:41:24;;;;;;;3.65;2.00;;;3.30;99.90;;;;;;2073097;28;20269;-68
2021/12/27 03:42:24;;;;;;;2.60;1.60;;;3.30;99.90;;;;;;2073052;28;20334;-68
2021/12/27 03:43:25;;;;;;;2.53;1.87;;;3.30;99.90;;;;;;2073069;28;20185;-68
2021/12/27 03:44:26;;;;;;;5.43;2.67;;;3.30;99.90;;;;;;2072993;28;20705;-68
2021/12/27 03:45:35;;;;;;;2.97;2.10;;;3.30;99.90;;;;;;2072871;28;20253;-67
2021/12/27 03:46:36;;;;;;;4.25;2.17;;;3.30;99.90;;;;;;2072947;28;20263;-68
2021/12/27 03:47:37;;;;;;;4.23;1.80;;;3.20;99.90;;;;;;2073043;28;20184;-68
2021/12/27 03:48:38;;;;;;;3.25;1.38;;;3.20;99.90;;;;;;2073559;28;20429;-68
2021/12/27 03:49:39;;;;;;;1.60;1.40;;;3.20;99.90;;;;;;2072904;28;20188;-68
2021/12/27 03:50:39;;;;;;;2.13;1.40;;;3.20;99.90;;;;;;2072885;28;20463;-68
2021/12/27 03:51:43;;;;;;;2.67;1.90;;;3.20;99.90;;;;;;2073621;28;20242;-68
2021/12/27 03:52:44;;;;;;;2.78;1.90;;;3.20;99.90;;;;;;2073550;28;20188;-68
2021/12/27 03:53:45;;;;;;;2.73;1.90;;;3.20;99.90;;;;;;2072998;28;20185;-68
2021/12/27 03:54:45;;;;;;;1.97;1.40;;;3.20;99.90;;;;;;2072817;28;20191;-68
2021/12/27 03:55:46;;;;;;;1.60;1.23;;;3.20;99.90;;;;;;2073501;28;20184;-68
2021/12/27 03:56:47;;;;;;;1.17;1.00;;;3.20;99.90;;;;;;2073408;28;20182;-68
2021/12/27 03:57:56;;;;;;;1.97;1.13;;;3.20;99.90;;;;;;2073466;28;20577;-68
2021/12/27 03:59:08;;;;;;;2.08;1.10;;;3.20;99.90;;;;;;2073550;28;20264;-68
2021/12/27 04:00:30;;;;;;;1.83;1.30;;;3.20;99.90;;;;;;2073497;28;20210;-68
2021/12/27 04:01:31;;;;;;;3.70;1.40;;;3.10;99.90;;;;;;2073433;28;20184;-67
2021/12/27 04:02:36;;;;;;;1.20;1.10;;;3.10;99.90;;;;;;2072904;28;20618;-68
2021/12/27 04:03:37;;;;;;;2.22;1.20;;;3.00;99.90;;;;;;2072971;28;20228;-68
2021/12/27 04:04:40;;;;;;;1.57;1.33;;;3.00;99.90;;;;;;2073355;28;20779;-68
2021/12/27 04:05:41;;;;;;;4.38;1.33;;;2.90;99.90;;;;;;2073309;28;20176;-68
2021/12/27 04:06:42;;;;;;;1.40;1.10;;;2.90;99.90;;;;;;2072918;28;20255;-68
2021/12/27 04:07:45;;;;;;;2.05;1.50;;;2.90;99.90;;;;;;2072929;28;20426;-68
2021/12/27 04:08:46;;;;;;;1.80;1.27;;;2.90;99.90;;;;;;2073491;28;20217;-68
2021/12/27 04:09:47;;;;;;;1.95;1.40;;;2.90;99.90;;;;;;2073352;28;20176;-67
2021/12/27 04:10:47;;;;;;;2.70;1.30;;;2.80;99.90;;;;;;2073432;28;20184;-68
2021/12/27 04:11:48;;;;;;;1.80;1.50;;;2.80;99.90;;;;;;2073351;28;20184;-68
2021/12/27 04:12:49;;;;;;;2.20;1.73;;;2.80;99.90;;;;;;2073458;28;20238;-68
2021/12/27 04:13:49;;;;;;;1.70;1.23;;;2.80;99.90;;;;;;2073412;28;20212;-67
2021/12/27 04:14:50;;;;;;;1.60;1.23;;;2.80;99.90;;;;;;2073307;28;20195;-68
2021/12/27 04:15:52;;;;;;;2.30;1.47;;;2.80;99.90;;;;;;2073388;28;20191;-68
2021/12/27 04:16:53;;;;;;;2.08;1.35;;;2.80;99.90;;;;;;2073255;28;20250;-68
2021/12/27 04:17:54;;;;;;;2.13;1.17;;;2.90;99.90;;;;;;2075234;28;20185;-68
2021/12/27 04:18:55;;;;;;;1.60;1.20;;;2.90;99.90;;;;;;2081435;28;20184;-68
2021/12/27 04:19:56;;;;;;;1.55;1.20;;;2.90;99.90;;;;;;2079696;28;20198;-68
2021/12/27 04:20:56;;;;;;;3.47;1.90;;;2.90;99.90;;;;;;2075154;28;20188;-68
2021/12/27 04:21:57;;;;;;;2.20;1.20;;;2.90;99.90;;;;;;2072687;28;20173;-68
2021/12/27 04:22:58;;;;;;;1.27;1.10;;;3.00;99.90;;;;;;2072359;28;20174;-68
2021/12/27 04:23:58;;;;;;;1.10;0.90;;;3.00;99.90;;;;;;2073300;28;20553;-68
2021/12/27 04:25:03;;;;;;;0.90;0.80;;;3.00;99.90;;;;;;2073184;28;20190;-68
2021/12/27 04:26:04;;;;;;;1.60;1.02;;;3.00;99.90;;;;;;2073267;28;20185;-68
2021/12/27 04:27:05;;;;;;;2.13;1.20;;;3.00;99.90;;;;;;2073340;28;20184;-68
2021/12/27 04:28:06;;;;;;;2.20;0.90;;;3.00;99.90;;;;;;2073215;28;20428;-68
2021/12/27 04:29:07;;;;;;;1.48;0.95;;;3.00;99.90;;;;;;2072730;28;20184;-68
2021/12/27 04:30:08;;;;;;;1.10;0.90;;;3.00;99.90;;;;;;2072649;28;20199;-68
2021/12/27 04:31:09;;;;;;;0.90;0.90;;;3.10;99.90;;;;;;2072690;28;20299;-68
2021/12/27 04:32:10;;;;;;;0.87;0.87;;;3.10;99.90;;;;;;2073315;28;20183;-68
2021/12/27 04:33:11;;;;;;;1.47;0.90;;;3.20;99.90;;;;;;2073244;28;20182;-68
2021/12/27 04:34:11;;;;;;;1.37;1.00;;;3.20;99.90;;;;;;2073304;28;20179;-68
2021/12/27 04:35:13;;;;;;;1.00;0.90;;;3.20;99.90;;;;;;2073190;28;20551;-68
2021/12/27 04:36:13;;;;;;;0.85;0.82;;;3.20;99.90;;;;;;2073187;28;20193;-68
2021/12/27 04:37:14;;;;;;;1.20;0.87;;;3.20;99.90;;;;;;2073473;28;20208;-68
2021/12/27 04:38:15;;;;;;;1.20;1.00;;;3.20;99.90;;;;;;2073239;28;20187;-68
2021/12/27 04:39:15;;;;;;;1.43;1.00;;;3.30;99.90;;;;;;2073219;28;20179;-67
2021/12/27 04:40:20;;;;;;;1.47;1.20;;;3.30;99.90;;;;;;2073071;28;20201;-68
2021/12/27 04:41:22;;;;;;;1.15;1.05;;;3.30;99.90;;;;;;2073227;28;20269;-68
2021/12/27 04:42:23;;;;;;;1.65;0.90;;;3.30;99.90;;;;;;2072617;28;20687;-68
2021/12/27 04:43:24;;;;;;;2.13;1.25;;;3.30;99.90;;;;;;2072761;28;20180;-68
2021/12/27 04:44:24;;;;;;;1.33;1.20;;;3.40;99.90;;;;;;2072536;28;20196;-68
2021/12/27 04:45:26;;;;;;;1.53;1.07;;;3.40;99.90;;;;;;2072507;28;20458;-68
2021/12/27 04:46:26;;;;;;;2.10;1.10;;;3.40;99.90;;;;;;2072641;28;20197;-68
2021/12/27 04:47:27;;;;;;;3.23;1.23;;;3.30;99.90;;;;;;2072488;28;20189;-68
2021/12/27 04:48:28;;;;;;;1.53;1.30;;;3.30;99.90;;;;;;2072653;28;20211;-68
2021/12/27 04:49:30;;;;;;;1.83;1.27;;;3.40;99.90;;;;;;2072539;28;20554;-68
2021/12/27 04:50:31;;;;;;;1.40;1.20;;;3.40;99.90;;;;;;2073133;28;20231;-68
2021/12/27 04:51:32;;;;;;;1.40;1.00;;;3.40;99.90;;;;;;2072569;28;20182;-68
2021/12/27 04:52:33;;;;;;;2.35;0.98;;;3.40;99.90;;;;;;2072598;28;20257;-68
2021/12/27 04:53:33;;;;;;;2.50;1.20;;;3.40;99.90;;;;;;2073169;28;20624;-68
2021/12/27 04:54:34;;;;;;;1.30;0.90;;;3.40;99.90;;;;;;2073027;28;20230;-68
2021/12/27 04:55:36;;;;;;;1.50;0.97;;;3.40;99.90;;;;;;2073192;28;20181;-68
2021/12/27 04:56:36;;;;;;;1.35;1.08;;;3.30;99.90;;;;;;2072556;28;20181;-67
2021/12/27 04:57:37;;;;;;;1.37;1.10;;;3.40;99.90;;;;;;2072467;28;20224;-68
2021/12/27 04:58:38;;;;;;;1.30;1.10;;;3.30;99.90;;;;;;2073267;28;20637;-68
2021/12/27 04:59:39;;;;;;;1.70;1.40;;;3.20;99.90;;;;;;2073005;28;20188;-68
2021/12/27 05:00:40;;;;;;;1.83;1.23;;;3.20;99.90;;;;;;2072501;28;20193;-68
2021/12/27 05:01:40;;;;;;;1.93;1.43;;;3.10;99.90;;;;;;2072519;28;20428;-67
2021/12/27 05:02:41;;;;;;;3.10;1.30;;;3.10;99.90;;;;;;2073167;28;20189;-68
2021/12/27 05:03:42;;;;;;;2.73;1.77;;;3.00;99.90;;;;;;2073127;28;20185;-67
2021/12/27 05:04:43;;;;;;;4.00;2.10;;;2.90;99.90;;;;;;2073015;28;20255;-68
2021/12/27 05:05:46;;;;;;;4.10;1.90;;;2.80;99.90;;;;;;2072949;28;20561;-68
2021/12/27 05:06:46;;;;;;;2.67;1.60;;;2.80;99.90;;;;;;2072520;28;20167;-68
2021/12/27 05:07:47;;;;;;;2.03;1.30;;;2.60;99.90;;;;;;2072520;28;20195;-68
2021/12/27 05:08:49;;;;;;;2.38;1.30;;;2.60;99.90;;;;;;2073206;28;20189;-67
2021/12/27 05:09:50;;;;;;;3.72;1.55;;;2.50;99.90;;;;;;2073000;28;20192;-67
2021/12/27 05:10:51;;;;;;;1.20;1.10;;;2.50;99.90;;;;;;2073045;28;20212;-67
2021/12/27 05:11:52;;;;;;;2.43;1.60;;;2.40;99.90;;;;;;2073067;28;20179;-68
2021/12/27 05:12:53;;;;;;;3.10;1.60;;;2.30;99.90;;;;;;2072487;28;20184;-68
2021/12/27 05:13:53;;;;;;;1.55;1.05;;;2.30;99.90;;;;;;2064421;28;20217;-68
2021/12/27 05:14:54;;;;;;;1.50;1.30;;;2.30;99.90;;;;;;2064288;28;20617;-68
2021/12/27 05:15:55;;;;;;;1.73;1.30;;;2.30;99.90;;;;;;2072398;28;20605;-67
2021/12/27 05:16:55;;;;;;;1.77;1.20;;;2.20;99.90;;;;;;2072416;28;20180;-67
2021/12/27 05:17:56;;;;;;;3.97;1.40;;;2.20;99.90;;;;;;2072560;28;20182;-68
2021/12/27 05:18:57;;;;;;;3.30;1.47;;;2.20;99.90;;;;;;2072485;28;20175;-68
2021/12/27 05:19:59;;;;;;;25.37;2.40;;;2.20;99.90;;;;;;2072301;28;20249;-68
2021/12/27 05:21:00;;;;;;;4.25;1.65;;;2.20;99.90;;;;;;2072390;28;20469;-68
2021/12/27 05:22:00;;;;;;;5.97;1.70;;;2.20;99.90;;;;;;2072403;28;20238;-68
2021/12/27 05:23:01;;;;;;;16.37;2.47;;;2.30;99.90;;;;;;2073043;28;20183;-68
2021/12/27 05:24:02;;;;;;;18.50;2.00;;;2.30;99.90;;;;;;2073003;28;20712;-68
2021/12/27 05:25:04;;;;;;;6.27;1.30;;;2.40;99.90;;;;;;2072955;28;20219;-68
2021/12/27 05:26:05;;;;;;;63.08;5.72;;;2.40;99.90;;;;;;2072431;28;20177;-68
2021/12/27 05:27:06;;;;;;;28.33;2.27;;;2.40;99.90;;;;;;2072308;28;20221;-68
2021/12/27 05:28:07;;;;;;;19.20;2.60;;;2.50;99.90;;;;;;2072406;28;20268;-67
2021/12/27 05:29:07;;;;;;;24.33;3.03;;;2.50;99.90;;;;;;2072406;28;20185;-67
2021/12/27 05:30:10;;;;;;;39.37;4.57;;;2.50;99.90;;;;;;2072369;28;20201;-68